sensor_id;sensor_type;location;lat;lon;timestamp;temperature;humidity
74416;SHT31;62850;42.428;25.618;2023-09-19T00:00:21;18.22;62.63
74416;SHT31;62850;42.428;25.618;2023-09-19T00:05:19;18.22;62.80
74416;SHT31;62850;42.428;25.618;2023-09-19T00:07:50;18.18;62.76
74416;SHT31;62850;42.428;25.618;2023-09-19T00:10:16;18.18;62.96
74416;SHT31;62850;42.428;25.618;2023-09-19T00:12:45;18.12;63.38
74416;SHT31;62850;42.428;25.618;2023-09-19T00:15:11;18.16;63.41
74416;SHT31;62850;42.428;25.618;2023-09-19T00:17:36;18.13;63.58
74416;SHT31;62850;42.428;25.618;2023-09-19T00:20:03;18.07;63.62
74416;SHT31;62850;42.428;25.618;2023-09-19T00:22:32;18.14;63.63
74416;SHT31;62850;42.428;25.618;2023-09-19T00:24:57;18.10;63.83
74416;SHT31;62850;42.428;25.618;2023-09-19T00:27:23;18.10;63.83
74416;SHT31;62850;42.428;25.618;2023-09-19T00:29:48;18.10;63.84
74416;SHT31;62850;42.428;25.618;2023-09-19T00:32:14;18.05;64.00
74416;SHT31;62850;42.428;25.618;2023-09-19T00:34:39;18.12;64.04
74416;SHT31;62850;42.428;25.618;2023-09-19T00:37:05;18.00;64.25
74416;SHT31;62850;42.428;25.618;2023-09-19T00:39:30;17.97;64.41
74416;SHT31;62850;42.428;25.618;2023-09-19T00:41:57;18.07;64.31
74416;SHT31;62850;42.428;25.618;2023-09-19T00:44:22;18.09;64.36
74416;SHT31;62850;42.428;25.618;2023-09-19T00:46:49;18.00;64.65
74416;SHT31;62850;42.428;25.618;2023-09-19T00:49:16;17.97;64.78
74416;SHT31;62850;42.428;25.618;2023-09-19T00:51:42;18.02;64.78
74416;SHT31;62850;42.428;25.618;2023-09-19T00:54:12;18.03;64.88
74416;SHT31;62850;42.428;25.618;2023-09-19T00:56:43;18.07;65.17
74416;SHT31;62850;42.428;25.618;2023-09-19T00:59:10;18.07;64.98
74416;SHT31;62850;42.428;25.618;2023-09-19T01:01:37;18.06;65.26
74416;SHT31;62850;42.428;25.618;2023-09-19T01:04:05;18.09;64.97
74416;SHT31;62850;42.428;25.618;2023-09-19T01:06:31;18.07;65.26
74416;SHT31;62850;42.428;25.618;2023-09-19T01:08:57;18.03;65.55
74416;SHT31;62850;42.428;25.618;2023-09-19T01:11:35;18.03;65.62
74416;SHT31;62850;42.428;25.618;2023-09-19T01:16:50;17.92;65.87
74416;SHT31;62850;42.428;25.618;2023-09-19T01:19:51;18.00;65.91
74416;SHT31;62850;42.428;25.618;2023-09-19T01:27:53;18.06;65.72
74416;SHT31;62850;42.428;25.618;2023-09-19T01:30:26;18.02;65.97
74416;SHT31;62850;42.428;25.618;2023-09-19T01:32:54;17.96;66.18
74416;SHT31;62850;42.428;25.618;2023-09-19T01:35:20;17.95;66.31
74416;SHT31;62850;42.428;25.618;2023-09-19T01:37:45;17.86;66.56
74416;SHT31;62850;42.428;25.618;2023-09-19T01:40:13;17.90;66.69
74416;SHT31;62850;42.428;25.618;2023-09-19T01:42:58;17.83;66.77
74416;SHT31;62850;42.428;25.618;2023-09-19T01:45:48;17.92;66.59
74416;SHT31;62850;42.428;25.618;2023-09-19T01:51:01;17.78;67.10
74416;SHT31;62850;42.428;25.618;2023-09-19T01:53:33;17.76;67.24
74416;SHT31;62850;42.428;25.618;2023-09-19T01:55:59;17.72;67.51
74416;SHT31;62850;42.428;25.618;2023-09-19T01:58:40;17.68;67.70
74416;SHT31;62850;42.428;25.618;2023-09-19T02:01:11;17.76;67.43
74416;SHT31;62850;42.428;25.618;2023-09-19T02:03:39;17.79;67.43
74416;SHT31;62850;42.428;25.618;2023-09-19T02:06:06;17.74;67.74
74416;SHT31;62850;42.428;25.618;2023-09-19T02:08:36;17.67;68.07
74416;SHT31;62850;42.428;25.618;2023-09-19T02:11:02;17.68;68.16
74416;SHT31;62850;42.428;25.618;2023-09-19T02:13:27;17.67;68.24
74416;SHT31;62850;42.428;25.618;2023-09-19T02:15:53;17.65;68.38
74416;SHT31;62850;42.428;25.618;2023-09-19T02:18:19;17.68;68.30
74416;SHT31;62850;42.428;25.618;2023-09-19T02:20:44;17.74;68.38
74416;SHT31;62850;42.428;25.618;2023-09-19T02:23:11;17.72;68.44
74416;SHT31;62850;42.428;25.618;2023-09-19T02:25:38;17.65;68.60
74416;SHT31;62850;42.428;25.618;2023-09-19T02:28:06;17.67;68.59
74416;SHT31;62850;42.428;25.618;2023-09-19T02:30:32;17.62;68.66
74416;SHT31;62850;42.428;25.618;2023-09-19T02:32:58;17.64;68.65
74416;SHT31;62850;42.428;25.618;2023-09-19T02:35:26;17.59;68.71
74416;SHT31;62850;42.428;25.618;2023-09-19T02:37:53;17.54;69.02
74416;SHT31;62850;42.428;25.618;2023-09-19T02:40:18;17.45;69.22
74416;SHT31;62850;42.428;25.618;2023-09-19T02:42:45;17.47;69.38
74416;SHT31;62850;42.428;25.618;2023-09-19T02:45:12;17.39;69.63
74416;SHT31;62850;42.428;25.618;2023-09-19T02:47:40;17.44;69.49
74416;SHT31;62850;42.428;25.618;2023-09-19T02:50:05;17.45;69.47
74416;SHT31;62850;42.428;25.618;2023-09-19T02:52:31;17.45;69.70
74416;SHT31;62850;42.428;25.618;2023-09-19T02:54:56;17.45;69.79
74416;SHT31;62850;42.428;25.618;2023-09-19T02:57:22;17.41;69.89
74416;SHT31;62850;42.428;25.618;2023-09-19T02:59:49;17.39;69.83
74416;SHT31;62850;42.428;25.618;2023-09-19T03:02:15;17.49;69.36
74416;SHT31;62850;42.428;25.618;2023-09-19T03:04:41;17.48;69.59
74416;SHT31;62850;42.428;25.618;2023-09-19T03:07:06;17.47;69.47
74416;SHT31;62850;42.428;25.618;2023-09-19T03:09:32;17.54;69.53
74416;SHT31;62850;42.428;25.618;2023-09-19T03:11:57;17.55;69.06
74416;SHT31;62850;42.428;25.618;2023-09-19T03:14:24;17.51;69.26
74416;SHT31;62850;42.428;25.618;2023-09-19T03:16:50;17.47;69.55
74416;SHT31;62850;42.428;25.618;2023-09-19T03:19:15;17.45;69.52
74416;SHT31;62850;42.428;25.618;2023-09-19T03:21:41;17.49;69.57
74416;SHT31;62850;42.428;25.618;2023-09-19T03:24:06;17.48;69.21
74416;SHT31;62850;42.428;25.618;2023-09-19T03:26:32;17.45;69.39
74416;SHT31;62850;42.428;25.618;2023-09-19T03:28:58;17.45;69.20
74416;SHT31;62850;42.428;25.618;2023-09-19T03:31:24;17.39;69.30
74416;SHT31;62850;42.428;25.618;2023-09-19T03:33:49;17.42;69.15
74416;SHT31;62850;42.428;25.618;2023-09-19T03:36:15;17.47;68.92
74416;SHT31;62850;42.428;25.618;2023-09-19T03:38:40;17.41;68.83
74416;SHT31;62850;42.428;25.618;2023-09-19T03:41:05;17.34;69.05
74416;SHT31;62850;42.428;25.618;2023-09-19T03:43:34;17.30;69.07
74416;SHT31;62850;42.428;25.618;2023-09-19T03:46:03;17.30;69.07
74416;SHT31;62850;42.428;25.618;2023-09-19T03:48:31;17.32;69.18
74416;SHT31;62850;42.428;25.618;2023-09-19T03:50:56;17.38;68.66
74416;SHT31;62850;42.428;25.618;2023-09-19T03:53:22;17.35;68.63
74416;SHT31;62850;42.428;25.618;2023-09-19T03:55:47;17.32;68.78
74416;SHT31;62850;42.428;25.618;2023-09-19T03:58:13;17.26;68.63
74416;SHT31;62850;42.428;25.618;2023-09-19T04:00:38;17.32;68.82
74416;SHT31;62850;42.428;25.618;2023-09-19T04:03:04;17.31;68.79
74416;SHT31;62850;42.428;25.618;2023-09-19T04:05:31;17.30;69.08
74416;SHT31;62850;42.428;25.618;2023-09-19T04:07:58;17.31;68.92
74416;SHT31;62850;42.428;25.618;2023-09-19T04:10:24;17.31;68.91
74416;SHT31;62850;42.428;25.618;2023-09-19T04:12:53;17.34;69.23
74416;SHT31;62850;42.428;25.618;2023-09-19T04:15:20;17.35;69.00
74416;SHT31;62850;42.428;25.618;2023-09-19T04:17:47;17.32;69.12
74416;SHT31;62850;42.428;25.618;2023-09-19T04:20:13;17.31;69.35
74416;SHT31;62850;42.428;25.618;2023-09-19T04:22:38;17.35;69.31
74416;SHT31;62850;42.428;25.618;2023-09-19T04:25:05;17.41;69.23
74416;SHT31;62850;42.428;25.618;2023-09-19T04:27:32;17.41;69.33
74416;SHT31;62850;42.428;25.618;2023-09-19T04:29:58;17.41;69.71
74416;SHT31;62850;42.428;25.618;2023-09-19T04:32:27;17.49;68.87
74416;SHT31;62850;42.428;25.618;2023-09-19T04:34:53;17.57;69.04
74416;SHT31;62850;42.428;25.618;2023-09-19T04:37:19;17.64;68.43
74416;SHT31;62850;42.428;25.618;2023-09-19T04:39:44;17.72;68.20
74416;SHT31;62850;42.428;25.618;2023-09-19T04:42:13;17.74;68.03
74416;SHT31;62850;42.428;25.618;2023-09-19T04:44:40;17.76;68.66
74416;SHT31;62850;42.428;25.618;2023-09-19T04:47:05;17.90;67.60
74416;SHT31;62850;42.428;25.618;2023-09-19T04:49:31;17.99;67.41
74416;SHT31;62850;42.428;25.618;2023-09-19T04:51:56;17.99;67.33
74416;SHT31;62850;42.428;25.618;2023-09-19T04:54:22;18.10;66.80
74416;SHT31;62850;42.428;25.618;2023-09-19T04:56:48;18.18;66.97
74416;SHT31;62850;42.428;25.618;2023-09-19T04:59:13;18.16;66.42
74416;SHT31;62850;42.428;25.618;2023-09-19T05:01:40;18.20;66.65
74416;SHT31;62850;42.428;25.618;2023-09-19T05:04:05;18.20;66.66
74416;SHT31;62850;42.428;25.618;2023-09-19T05:06:31;18.37;66.27
74416;SHT31;62850;42.428;25.618;2023-09-19T05:08:56;18.46;66.48
74416;SHT31;62850;42.428;25.618;2023-09-19T05:11:22;18.53;67.24
74416;SHT31;62850;42.428;25.618;2023-09-19T05:13:48;18.57;67.14
74416;SHT31;62850;42.428;25.618;2023-09-19T05:16:18;18.63;66.90
74416;SHT31;62850;42.428;25.618;2023-09-19T05:18:44;18.77;66.45
74416;SHT31;62850;42.428;25.618;2023-09-19T05:21:10;18.84;66.40
74416;SHT31;62850;42.428;25.618;2023-09-19T05:23:36;18.88;66.58
74416;SHT31;62850;42.428;25.618;2023-09-19T05:26:02;18.96;65.85
74416;SHT31;62850;42.428;25.618;2023-09-19T05:28:29;19.05;66.08
74416;SHT31;62850;42.428;25.618;2023-09-19T05:30:54;19.06;66.41
74416;SHT31;62850;42.428;25.618;2023-09-19T05:33:20;19.12;66.34
74416;SHT31;62850;42.428;25.618;2023-09-19T05:35:48;19.16;66.16
74416;SHT31;62850;42.428;25.618;2023-09-19T05:38:13;19.26;65.70
74416;SHT31;62850;42.428;25.618;2023-09-19T05:40:40;19.32;65.77
74416;SHT31;62850;42.428;25.618;2023-09-19T05:43:10;19.37;65.61
74416;SHT31;62850;42.428;25.618;2023-09-19T05:45:35;19.43;65.36
74416;SHT31;62850;42.428;25.618;2023-09-19T05:48:14;19.49;65.49
74416;SHT31;62850;42.428;25.618;2023-09-19T05:50:42;19.47;65.67
74416;SHT31;62850;42.428;25.618;2023-09-19T05:53:07;19.53;65.21
74416;SHT31;62850;42.428;25.618;2023-09-19T05:55:33;19.59;65.18
74416;SHT31;62850;42.428;25.618;2023-09-19T05:57:59;19.62;65.04
74416;SHT31;62850;42.428;25.618;2023-09-19T06:00:25;19.59;65.22
74416;SHT31;62850;42.428;25.618;2023-09-19T06:02:57;19.60;65.18
74416;SHT31;62850;42.428;25.618;2023-09-19T06:05:26;19.60;65.19
74416;SHT31;62850;42.428;25.618;2023-09-19T06:07:52;19.71;64.32
74416;SHT31;62850;42.428;25.618;2023-09-19T06:10:18;19.77;63.97
74416;SHT31;62850;42.428;25.618;2023-09-19T06:12:46;19.90;63.40
74416;SHT31;62850;42.428;25.618;2023-09-19T06:15:15;20.00;62.66
74416;SHT31;62850;42.428;25.618;2023-09-19T06:17:54;20.10;62.17
74416;SHT31;62850;42.428;25.618;2023-09-19T06:20:27;20.14;61.13
74416;SHT31;62850;42.428;25.618;2023-09-19T06:22:53;20.25;60.62
74416;SHT31;62850;42.428;25.618;2023-09-19T06:25:19;20.29;61.22
74416;SHT31;62850;42.428;25.618;2023-09-19T06:27:49;20.32;60.94
74416;SHT31;62850;42.428;25.618;2023-09-19T06:30:17;20.34;61.01
74416;SHT31;62850;42.428;25.618;2023-09-19T06:32:43;20.39;60.71
74416;SHT31;62850;42.428;25.618;2023-09-19T06:35:09;20.55;60.02
74416;SHT31;62850;42.428;25.618;2023-09-19T06:37:36;20.63;58.97
74416;SHT31;62850;42.428;25.618;2023-09-19T06:40:09;20.75;59.19
74416;SHT31;62850;42.428;25.618;2023-09-19T06:42:44;20.83;58.98
74416;SHT31;62850;42.428;25.618;2023-09-19T06:45:11;20.87;58.04
74416;SHT31;62850;42.428;25.618;2023-09-19T06:47:39;20.93;56.77
74416;SHT31;62850;42.428;25.618;2023-09-19T06:50:05;21.01;56.94
74416;SHT31;62850;42.428;25.618;2023-09-19T06:52:32;21.06;57.18
74416;SHT31;62850;42.428;25.618;2023-09-19T06:54:58;21.13;56.91
74416;SHT31;62850;42.428;25.618;2023-09-19T06:57:24;21.17;56.76
74416;SHT31;62850;42.428;25.618;2023-09-19T06:59:50;21.11;57.06
74416;SHT31;62850;42.428;25.618;2023-09-19T07:02:15;21.21;57.34
74416;SHT31;62850;42.428;25.618;2023-09-19T07:04:41;21.26;57.10
74416;SHT31;62850;42.428;25.618;2023-09-19T07:07:06;21.37;57.07
74416;SHT31;62850;42.428;25.618;2023-09-19T07:09:34;21.50;56.48
74416;SHT31;62850;42.428;25.618;2023-09-19T07:12:00;21.55;56.05
74416;SHT31;62850;42.428;25.618;2023-09-19T07:14:26;21.63;55.71
74416;SHT31;62850;42.428;25.618;2023-09-19T07:16:51;21.68;55.12
74416;SHT31;62850;42.428;25.618;2023-09-19T07:19:17;21.77;55.21
74416;SHT31;62850;42.428;25.618;2023-09-19T07:21:42;21.86;55.10
74416;SHT31;62850;42.428;25.618;2023-09-19T07:24:08;21.96;54.55
74416;SHT31;62850;42.428;25.618;2023-09-19T07:26:34;22.00;53.65
74416;SHT31;62850;42.428;25.618;2023-09-19T07:28:59;22.10;53.43
74416;SHT31;62850;42.428;25.618;2023-09-19T07:31:27;22.23;52.52
74416;SHT31;62850;42.428;25.618;2023-09-19T07:33:54;22.40;51.40
74416;SHT31;62850;42.428;25.618;2023-09-19T07:36:19;22.53;50.31
74416;SHT31;62850;42.428;25.618;2023-09-19T07:38:45;22.61;49.77
74416;SHT31;62850;42.428;25.618;2023-09-19T07:41:10;22.60;49.72
74416;SHT31;62850;42.428;25.618;2023-09-19T07:43:36;22.49;49.21
74416;SHT31;62850;42.428;25.618;2023-09-19T07:46:05;22.51;49.70
74416;SHT31;62850;42.428;25.618;2023-09-19T07:48:33;22.64;49.16
74416;SHT31;62850;42.428;25.618;2023-09-19T07:51:05;22.75;49.61
74416;SHT31;62850;42.428;25.618;2023-09-19T07:53:32;22.83;49.59
74416;SHT31;62850;42.428;25.618;2023-09-19T07:56:06;22.84;49.18
74416;SHT31;62850;42.428;25.618;2023-09-19T07:58:32;22.90;48.66
74416;SHT31;62850;42.428;25.618;2023-09-19T08:01:08;22.72;48.24
74416;SHT31;62850;42.428;25.618;2023-09-19T08:03:36;22.63;48.19
74416;SHT31;62850;42.428;25.618;2023-09-19T08:06:09;22.60;48.43
74416;SHT31;62850;42.428;25.618;2023-09-19T08:08:35;22.51;48.07
74416;SHT31;62850;42.428;25.618;2023-09-19T08:11:05;22.41;48.13
74416;SHT31;62850;42.428;25.618;2023-09-19T08:13:41;22.39;48.55
74416;SHT31;62850;42.428;25.618;2023-09-19T08:16:12;22.53;48.62
74416;SHT31;62850;42.428;25.618;2023-09-19T08:18:37;22.65;48.84
74416;SHT31;62850;42.428;25.618;2023-09-19T08:21:06;22.72;48.51
74416;SHT31;62850;42.428;25.618;2023-09-19T08:23:39;22.87;48.65
74416;SHT31;62850;42.428;25.618;2023-09-19T08:26:05;22.95;48.05
74416;SHT31;62850;42.428;25.618;2023-09-19T08:28:34;22.94;46.83
74416;SHT31;62850;42.428;25.618;2023-09-19T08:31:04;22.99;47.14
74416;SHT31;62850;42.428;25.618;2023-09-19T08:33:36;23.07;45.97
74416;SHT31;62850;42.428;25.618;2023-09-19T08:36:07;23.07;45.67
74416;SHT31;62850;42.428;25.618;2023-09-19T08:38:35;23.25;45.57
74416;SHT31;62850;42.428;25.618;2023-09-19T08:41:04;23.26;45.60
74416;SHT31;62850;42.428;25.618;2023-09-19T08:43:30;23.38;45.09
74416;SHT31;62850;42.428;25.618;2023-09-19T08:46:07;23.55;45.28
74416;SHT31;62850;42.428;25.618;2023-09-19T08:48:34;23.67;45.42
74416;SHT31;62850;42.428;25.618;2023-09-19T08:51:07;23.78;44.22
74416;SHT31;62850;42.428;25.618;2023-09-19T08:53:42;23.93;44.57
74416;SHT31;62850;42.428;25.618;2023-09-19T08:56:12;24.10;44.41
74416;SHT31;62850;42.428;25.618;2023-09-19T08:58:49;24.25;43.66
74416;SHT31;62850;42.428;25.618;2023-09-19T09:01:17;24.10;42.71
74416;SHT31;62850;42.428;25.618;2023-09-19T09:03:53;24.15;42.43
74416;SHT31;62850;42.428;25.618;2023-09-19T09:06:20;24.28;43.52
74416;SHT31;62850;42.428;25.618;2023-09-19T09:08:46;24.41;43.88
74416;SHT31;62850;42.428;25.618;2023-09-19T09:11:15;24.59;42.47
74416;SHT31;62850;42.428;25.618;2023-09-19T09:13:43;24.62;42.88
74416;SHT31;62850;42.428;25.618;2023-09-19T09:16:10;24.65;41.38
74416;SHT31;62850;42.428;25.618;2023-09-19T09:18:36;24.76;41.66
74416;SHT31;62850;42.428;25.618;2023-09-19T09:21:02;24.77;42.07
74416;SHT31;62850;42.428;25.618;2023-09-19T09:23:30;24.85;41.17
74416;SHT31;62850;42.428;25.618;2023-09-19T09:25:58;24.92;41.61
74416;SHT31;62850;42.428;25.618;2023-09-19T09:28:29;25.03;41.64
74416;SHT31;62850;42.428;25.618;2023-09-19T09:30:56;25.20;40.50
74416;SHT31;62850;42.428;25.618;2023-09-19T09:33:24;25.23;40.61
74416;SHT31;62850;42.428;25.618;2023-09-19T09:35:58;25.37;40.68
74416;SHT31;62850;42.428;25.618;2023-09-19T09:38:48;25.47;40.43
74416;SHT31;62850;42.428;25.618;2023-09-19T09:41:15;25.54;40.80
74416;SHT31;62850;42.428;25.618;2023-09-19T09:43:53;25.72;39.86
74416;SHT31;62850;42.428;25.618;2023-09-19T09:46:20;25.84;40.01
74416;SHT31;62850;42.428;25.618;2023-09-19T09:48:47;25.99;39.62
74416;SHT31;62850;42.428;25.618;2023-09-19T09:51:33;26.18;39.48
74416;SHT31;62850;42.428;25.618;2023-09-19T09:54:14;26.28;39.05
74416;SHT31;62850;42.428;25.618;2023-09-19T09:56:56;26.26;38.71
74416;SHT31;62850;42.428;25.618;2023-09-19T10:02:18;26.33;37.95
74416;SHT31;62850;42.428;25.618;2023-09-19T10:04:53;26.43;37.86
74416;SHT31;62850;42.428;25.618;2023-09-19T10:07:46;26.57;37.80
74416;SHT31;62850;42.428;25.618;2023-09-19T10:10:37;26.90;36.83
74416;SHT31;62850;42.428;25.618;2023-09-19T10:13:09;27.05;37.04
74416;SHT31;62850;42.428;25.618;2023-09-19T10:15:42;26.92;36.51
74416;SHT31;62850;42.428;25.618;2023-09-19T10:18:19;26.91;36.71
74416;SHT31;62850;42.428;25.618;2023-09-19T10:20:46;27.10;36.90
74416;SHT31;62850;42.428;25.618;2023-09-19T10:23:12;27.27;36.46
74416;SHT31;62850;42.428;25.618;2023-09-19T10:25:43;27.38;36.49
74416;SHT31;62850;42.428;25.618;2023-09-19T10:28:13;27.37;36.01
74416;SHT31;62850;42.428;25.618;2023-09-19T10:30:43;27.48;35.58
74416;SHT31;62850;42.428;25.618;2023-09-19T10:33:11;27.63;35.60
74416;SHT31;62850;42.428;25.618;2023-09-19T10:35:45;27.65;34.83
74416;SHT31;62850;42.428;25.618;2023-09-19T10:38:12;27.80;34.41
74416;SHT31;62850;42.428;25.618;2023-09-19T10:40:39;27.78;34.83
74416;SHT31;62850;42.428;25.618;2023-09-19T10:43:21;27.74;34.75
74416;SHT31;62850;42.428;25.618;2023-09-19T10:45:50;27.83;35.04
74416;SHT31;62850;42.428;25.618;2023-09-19T10:48:19;27.99;34.77
74416;SHT31;62850;42.428;25.618;2023-09-19T10:51:05;28.03;34.37
74416;SHT31;62850;42.428;25.618;2023-09-19T10:56:25;27.86;33.77
74416;SHT31;62850;42.428;25.618;2023-09-19T10:59:08;27.80;34.04
74416;SHT31;62850;42.428;25.618;2023-09-19T11:01:46;27.83;33.90
74416;SHT31;62850;42.428;25.618;2023-09-19T11:07:07;27.94;34.29
74416;SHT31;62850;42.428;25.618;2023-09-19T11:14:57;27.90;34.61
74416;SHT31;62850;42.428;25.618;2023-09-19T11:17:33;27.94;34.48
74416;SHT31;62850;42.428;25.618;2023-09-19T11:30:38;27.96;33.35
74416;SHT31;62850;42.428;25.618;2023-09-19T11:33:28;28.08;32.94
74416;SHT31;62850;42.428;25.618;2023-09-19T11:36:11;28.21;33.04
74416;SHT31;62850;42.428;25.618;2023-09-19T11:43:53;28.71;33.00
74416;SHT31;62850;42.428;25.618;2023-09-19T11:46:24;28.95;33.07
74416;SHT31;62850;42.428;25.618;2023-09-19T11:48:51;29.15;32.65
74416;SHT31;62850;42.428;25.618;2023-09-19T11:53:50;29.06;31.98
74416;SHT31;62850;42.428;25.618;2023-09-19T11:56:17;29.20;31.94
74416;SHT31;62850;42.428;25.618;2023-09-19T11:58:46;29.50;31.88
74416;SHT31;62850;42.428;25.618;2023-09-19T12:01:15;29.74;31.80
74416;SHT31;62850;42.428;25.618;2023-09-19T12:03:47;29.88;31.37
74416;SHT31;62850;42.428;25.618;2023-09-19T12:06:16;29.95;31.10
74416;SHT31;62850;42.428;25.618;2023-09-19T12:08:43;30.09;30.56
74416;SHT31;62850;42.428;25.618;2023-09-19T12:11:15;30.46;30.72
74416;SHT31;62850;42.428;25.618;2023-09-19T12:13:43;30.59;31.06
74416;SHT31;62850;42.428;25.618;2023-09-19T12:16:16;30.62;30.09
74416;SHT31;62850;42.428;25.618;2023-09-19T12:18:43;30.69;30.31
74416;SHT31;62850;42.428;25.618;2023-09-19T12:21:28;30.62;30.38
74416;SHT31;62850;42.428;25.618;2023-09-19T12:24:06;30.45;30.28
74416;SHT31;62850;42.428;25.618;2023-09-19T12:26:42;29.89;30.85
74416;SHT31;62850;42.428;25.618;2023-09-19T12:29:27;29.44;30.90
74416;SHT31;62850;42.428;25.618;2023-09-19T12:31:54;29.27;31.55
74416;SHT31;62850;42.428;25.618;2023-09-19T12:34:27;29.06;32.44
74416;SHT31;62850;42.428;25.618;2023-09-19T12:39:53;28.67;32.51
74416;SHT31;62850;42.428;25.618;2023-09-19T12:42:24;28.37;32.67
74416;SHT31;62850;42.428;25.618;2023-09-19T12:44:55;28.18;33.26
74416;SHT31;62850;42.428;25.618;2023-09-19T12:47:22;28.14;33.65
74416;SHT31;62850;42.428;25.618;2023-09-19T12:50:14;28.04;34.01
74416;SHT31;62850;42.428;25.618;2023-09-19T12:52:55;27.93;33.94
74416;SHT31;62850;42.428;25.618;2023-09-19T12:55:29;27.67;33.90
74416;SHT31;62850;42.428;25.618;2023-09-19T12:58:13;27.35;34.40
74416;SHT31;62850;42.428;25.618;2023-09-19T13:00:42;27.45;34.63
74416;SHT31;62850;42.428;25.618;2023-09-19T13:08:31;27.56;34.51
74416;SHT31;62850;42.428;25.618;2023-09-19T13:13:45;27.87;35.36
74416;SHT31;62850;42.428;25.618;2023-09-19T13:16:13;28.10;34.00
74416;SHT31;62850;42.428;25.618;2023-09-19T13:18:52;28.34;33.58
74416;SHT31;62850;42.428;25.618;2023-09-19T13:21:32;28.65;34.10
74416;SHT31;62850;42.428;25.618;2023-09-19T13:24:22;28.88;33.64
74416;SHT31;62850;42.428;25.618;2023-09-19T13:26:48;29.05;32.66
74416;SHT31;62850;42.428;25.618;2023-09-19T13:29:14;29.12;32.83
74416;SHT31;62850;42.428;25.618;2023-09-19T13:31:48;29.29;32.27
74416;SHT31;62850;42.428;25.618;2023-09-19T13:34:14;29.43;32.59
74416;SHT31;62850;42.428;25.618;2023-09-19T13:36:43;29.57;31.88
74416;SHT31;62850;42.428;25.618;2023-09-19T13:39:11;29.56;32.09
74416;SHT31;62850;42.428;25.618;2023-09-19T13:41:41;29.36;32.59
74416;SHT31;62850;42.428;25.618;2023-09-19T13:44:08;29.16;32.06
74416;SHT31;62850;42.428;25.618;2023-09-19T13:46:36;29.17;32.46
74416;SHT31;62850;42.428;25.618;2023-09-19T13:49:02;29.25;32.25
74416;SHT31;62850;42.428;25.618;2023-09-19T13:51:31;29.43;32.78
74416;SHT31;62850;42.428;25.618;2023-09-19T13:53:57;29.63;32.19
74416;SHT31;62850;42.428;25.618;2023-09-19T13:56:23;29.84;32.56
74416;SHT31;62850;42.428;25.618;2023-09-19T13:58:49;30.12;31.59
74416;SHT31;62850;42.428;25.618;2023-09-19T14:01:14;30.18;31.98
74416;SHT31;62850;42.428;25.618;2023-09-19T14:03:41;30.22;31.93
74416;SHT31;62850;42.428;25.618;2023-09-19T14:06:12;30.18;31.99
74416;SHT31;62850;42.428;25.618;2023-09-19T14:08:38;30.06;32.19
74416;SHT31;62850;42.428;25.618;2023-09-19T14:11:10;29.78;32.64
74416;SHT31;62850;42.428;25.618;2023-09-19T14:13:36;29.49;33.06
74416;SHT31;62850;42.428;25.618;2023-09-19T14:16:05;29.38;32.03
74416;SHT31;62850;42.428;25.618;2023-09-19T14:18:31;29.33;32.95
74416;SHT31;62850;42.428;25.618;2023-09-19T14:20:57;29.47;33.09
74416;SHT31;62850;42.428;25.618;2023-09-19T14:23:22;29.51;33.00
74416;SHT31;62850;42.428;25.618;2023-09-19T14:25:50;29.43;33.24
74416;SHT31;62850;42.428;25.618;2023-09-19T14:28:15;29.61;33.14
74416;SHT31;62850;42.428;25.618;2023-09-19T14:30:41;29.78;32.54
74416;SHT31;62850;42.428;25.618;2023-09-19T14:33:06;30.01;32.22
74416;SHT31;62850;42.428;25.618;2023-09-19T14:35:32;29.97;31.61
74416;SHT31;62850;42.428;25.618;2023-09-19T14:37:58;30.00;31.74
74416;SHT31;62850;42.428;25.618;2023-09-19T14:40:23;30.18;32.30
74416;SHT31;62850;42.428;25.618;2023-09-19T14:42:49;30.32;31.37
74416;SHT31;62850;42.428;25.618;2023-09-19T14:45:14;30.43;31.53
74416;SHT31;62850;42.428;25.618;2023-09-19T14:47:45;30.32;31.53
74416;SHT31;62850;42.428;25.618;2023-09-19T14:50:11;30.12;31.59
74416;SHT31;62850;42.428;25.618;2023-09-19T14:52:37;29.91;31.24
74416;SHT31;62850;42.428;25.618;2023-09-19T14:55:06;29.67;31.53
74416;SHT31;62850;42.428;25.618;2023-09-19T14:57:31;29.36;32.01
74416;SHT31;62850;42.428;25.618;2023-09-19T14:59:58;29.17;32.39
74416;SHT31;62850;42.428;25.618;2023-09-19T15:02:24;29.00;32.37
74416;SHT31;62850;42.428;25.618;2023-09-19T15:04:50;28.83;32.46
74416;SHT31;62850;42.428;25.618;2023-09-19T15:07:16;28.65;32.26
74416;SHT31;62850;42.428;25.618;2023-09-19T15:09:43;28.51;32.60
74416;SHT31;62850;42.428;25.618;2023-09-19T15:12:09;28.38;32.85
74416;SHT31;62850;42.428;25.618;2023-09-19T15:14:36;28.24;33.14
74416;SHT31;62850;42.428;25.618;2023-09-19T15:17:04;28.08;33.17
74416;SHT31;62850;42.428;25.618;2023-09-19T15:19:30;28.06;33.08
74416;SHT31;62850;42.428;25.618;2023-09-19T15:21:56;28.03;32.87
74416;SHT31;62850;42.428;25.618;2023-09-19T15:24:23;27.94;33.80
74416;SHT31;62850;42.428;25.618;2023-09-19T15:26:48;27.80;34.10
74416;SHT31;62850;42.428;25.618;2023-09-19T15:29:15;27.71;33.88
74416;SHT31;62850;42.428;25.618;2023-09-19T15:31:41;27.59;34.07
74416;SHT31;62850;42.428;25.618;2023-09-19T15:34:06;27.48;34.25
74416;SHT31;62850;42.428;25.618;2023-09-19T15:36:33;27.35;34.45
74416;SHT31;62850;42.428;25.618;2023-09-19T15:39:02;27.24;34.77
74416;SHT31;62850;42.428;25.618;2023-09-19T15:41:30;27.08;34.70
74416;SHT31;62850;42.428;25.618;2023-09-19T15:43:56;26.98;34.81
74416;SHT31;62850;42.428;25.618;2023-09-19T15:46:22;26.91;35.02
74416;SHT31;62850;42.428;25.618;2023-09-19T15:48:48;26.80;35.54
74416;SHT31;62850;42.428;25.618;2023-09-19T15:51:13;26.70;35.35
74416;SHT31;62850;42.428;25.618;2023-09-19T15:53:47;26.61;35.72
74416;SHT31;62850;42.428;25.618;2023-09-19T15:56:14;26.54;36.14
74416;SHT31;62850;42.428;25.618;2023-09-19T15:58:40;26.46;36.94
74416;SHT31;62850;42.428;25.618;2023-09-19T16:01:06;26.36;37.51
74416;SHT31;62850;42.428;25.618;2023-09-19T16:03:37;26.25;37.95
74416;SHT31;62850;42.428;25.618;2023-09-19T16:06:16;26.05;38.52
74416;SHT31;62850;42.428;25.618;2023-09-19T16:08:47;25.93;38.94
74416;SHT31;62850;42.428;25.618;2023-09-19T16:11:13;25.85;39.24
74416;SHT31;62850;42.428;25.618;2023-09-19T16:13:40;25.77;39.66
74416;SHT31;62850;42.428;25.618;2023-09-19T16:16:11;25.68;40.20
74416;SHT31;62850;42.428;25.618;2023-09-19T16:18:55;25.58;40.29
74416;SHT31;62850;42.428;25.618;2023-09-19T16:21:23;25.47;40.81